createdAt,value
2023-08-13T00:00:57.929Z,76.30
2023-08-13T00:03:25.595Z,79.18
2023-08-13T00:05:53.251Z,59.10
2023-08-13T00:08:20.797Z,53.97
2023-08-13T00:10:48.372Z,55.88
2023-08-13T00:13:17.337Z,64.72
2023-08-13T00:15:44.892Z,75.13
2023-08-13T00:18:12.599Z,77.43
2023-08-13T00:20:40.167Z,81.93
2023-08-13T00:23:07.828Z,76.32
2023-08-13T00:25:35.389Z,89.70
2023-08-13T00:28:02.945Z,76.38
2023-08-13T00:30:31.830Z,91.25
2023-08-13T00:32:59.419Z,69.90
2023-08-13T00:35:27.012Z,80.03
2023-08-13T00:37:54.605Z,80.85
2023-08-13T00:40:22.159Z,71.93
2023-08-13T00:42:49.737Z,83.55
2023-08-13T00:45:17.417Z,76.82
2023-08-13T00:47:46.647Z,72.65
2023-08-13T00:50:14.427Z,63.47
2023-08-13T00:52:42.476Z,45.38
2023-08-13T00:55:10.961Z,49.45
2023-08-13T00:57:38.954Z,51.22
2023-08-13T01:00:11.723Z,80.20
2023-08-13T01:02:39.591Z,75.75
2023-08-13T01:05:08.802Z,84.47
2023-08-13T01:07:44.146Z,93.55
2023-08-13T01:10:20.125Z,69.90
2023-08-13T01:12:54.161Z,70.90
2023-08-13T01:15:28.435Z,90.03
2023-08-13T01:17:58.007Z,97.13
2023-08-13T01:20:31.088Z,100.72
2023-08-13T01:23:00.643Z,84.50
2023-08-13T01:25:28.689Z,88.25
2023-08-13T01:28:01.013Z,90.47
2023-08-13T01:30:34.508Z,92.43
2023-08-13T01:33:04.886Z,53.88
2023-08-13T01:35:34.668Z,61.80
2023-08-13T01:38:04.883Z,59.63
2023-08-13T01:40:32.485Z,50.38
2023-08-13T01:43:00.073Z,53.80
2023-08-13T01:45:27.649Z,44.00
2023-08-13T01:47:55.529Z,45.90
2023-08-13T01:50:23.763Z,91.78
2023-08-13T01:52:51.342Z,73.53
2023-08-13T01:55:20.466Z,91.07
2023-08-13T01:57:48.015Z,80.35
2023-08-13T02:00:15.715Z,90.13
2023-08-13T02:02:43.293Z,90.82
2023-08-13T02:05:11.108Z,87.80
2023-08-13T02:07:38.714Z,78.35
2023-08-13T02:10:06.822Z,65.72
2023-08-13T02:12:35.742Z,69.65
2023-08-13T02:15:03.277Z,62.35
2023-08-13T02:17:30.898Z,60.35
2023-08-13T02:19:58.485Z,62.25
2023-08-13T02:22:26.061Z,51.65
2023-08-13T02:24:53.637Z,54.17
2023-08-13T02:27:21.387Z,49.67
2023-08-13T02:29:50.274Z,49.00
2023-08-13T02:32:17.822Z,54.22
2023-08-13T02:34:46.377Z,46.15
2023-08-13T02:37:14.036Z,41.53
2023-08-13T02:39:41.752Z,39.28
2023-08-13T02:42:09.340Z,43.47
2023-08-13T02:44:36.888Z,37.90
2023-08-13T02:47:06.041Z,38.67
2023-08-13T02:49:33.632Z,44.63
2023-08-13T02:52:01.210Z,38.38
2023-08-13T02:54:28.773Z,63.42
2023-08-13T02:56:56.347Z,76.85
2023-08-13T02:59:23.889Z,75.90
2023-08-13T03:01:51.458Z,69.53
2023-08-13T03:04:20.428Z,76.53
2023-08-13T03:06:47.999Z,72.93
2023-08-13T03:09:21.071Z,69.95
2023-08-13T03:11:48.877Z,67.65
2023-08-13T03:14:16.606Z,72.00
2023-08-13T03:16:44.248Z,55.20
2023-08-13T03:19:11.845Z,58.08
2023-08-13T03:21:40.809Z,68.63
2023-08-13T03:24:08.839Z,65.13
2023-08-13T03:26:36.502Z,81.47
2023-08-13T03:29:04.144Z,74.72
2023-08-13T03:31:31.741Z,70.20
2023-08-13T03:33:59.405Z,51.40
2023-08-13T03:36:26.959Z,44.75
2023-08-13T03:38:55.867Z,47.75
2023-08-13T03:41:23.441Z,65.00
2023-08-13T03:43:50.992Z,48.78
2023-08-13T03:46:18.571Z,56.92
2023-08-13T03:48:46.151Z,45.50
2023-08-13T03:51:13.709Z,50.53
2023-08-13T03:53:41.277Z,40.47
2023-08-13T03:56:10.321Z,42.88
2023-08-13T03:58:39.405Z,39.88
2023-08-13T04:01:08.028Z,45.67
2023-08-13T04:03:36.639Z,44.72
2023-08-13T04:06:04.570Z,45.22
2023-08-13T04:08:35.277Z,45.63
2023-08-13T04:11:02.869Z,47.08
2023-08-13T04:13:31.731Z,46.13
2023-08-13T04:15:59.297Z,55.30
2023-08-13T04:18:26.841Z,47.28
2023-08-13T04:20:54.427Z,42.08
2023-08-13T04:23:22.022Z,39.60
2023-08-13T04:25:49.598Z,31.98
2023-08-13T04:28:17.146Z,36.85
2023-08-13T04:30:46.046Z,35.65
2023-08-13T04:33:13.613Z,29.80
2023-08-13T04:35:41.172Z,24.58
2023-08-13T04:38:08.747Z,23.25
2023-08-13T04:40:36.592Z,35.88
2023-08-13T04:43:04.180Z,38.78
2023-08-13T04:45:31.788Z,26.17
2023-08-13T04:48:00.711Z,21.00
2023-08-13T04:50:28.497Z,17.77
2023-08-13T04:52:56.085Z,14.63
2023-08-13T04:55:23.678Z,16.90
2023-08-13T04:57:51.256Z,26.25
2023-08-13T05:00:18.972Z,37.33
2023-08-13T05:02:46.566Z,70.13
2023-08-13T05:05:15.643Z,185.25
2023-08-13T05:07:43.249Z,83.22
2023-08-13T05:10:11.243Z,57.40
2023-08-13T05:12:38.802Z,14.68
2023-08-13T05:15:07.650Z,14.95
2023-08-13T05:17:36.594Z,12.20
2023-08-13T05:20:05.548Z,11.95
2023-08-13T05:22:34.520Z,9.90
2023-08-13T05:25:02.067Z,9.80
2023-08-13T05:27:29.679Z,9.07
2023-08-13T05:29:57.321Z,8.18
2023-08-13T05:32:25.757Z,11.55
2023-08-13T05:34:53.439Z,9.00
2023-08-13T05:37:21.177Z,9.90
2023-08-13T05:39:50.098Z,8.07
2023-08-13T05:42:17.644Z,8.02
2023-08-13T05:44:45.278Z,9.80
2023-08-13T05:47:14.995Z,16.70
2023-08-13T05:49:42.699Z,20.55
2023-08-13T05:52:10.270Z,21.88
2023-08-13T05:54:37.863Z,30.40
2023-08-13T05:57:06.932Z,24.70
2023-08-13T05:59:34.531Z,18.50
2023-08-13T06:02:02.081Z,15.25
2023-08-13T06:04:29.635Z,13.27
2023-08-13T06:06:57.166Z,23.02
2023-08-13T06:09:24.836Z,17.70
2023-08-13T06:11:52.359Z,18.90
2023-08-13T06:14:21.260Z,10.75
2023-08-13T06:16:52.670Z,7.95
2023-08-13T06:19:25.359Z,5.78
2023-08-13T06:21:52.920Z,5.35
2023-08-13T06:24:20.438Z,6.45
2023-08-13T06:26:47.978Z,11.13
2023-08-13T06:29:15.506Z,8.68
2023-08-13T06:31:44.455Z,9.77
2023-08-13T06:34:12.474Z,11.00
2023-08-13T06:36:40.370Z,11.15
2023-08-13T06:39:07.988Z,9.23
2023-08-13T06:41:35.504Z,8.45
2023-08-13T06:44:03.105Z,9.43
2023-08-13T06:46:30.827Z,9.90
2023-08-13T06:48:59.770Z,6.35
2023-08-13T06:51:27.318Z,6.60
2023-08-13T06:53:54.880Z,7.57
2023-08-13T06:56:22.511Z,7.50
2023-08-13T06:58:50.036Z,6.43
2023-08-13T07:01:17.633Z,7.20
2023-08-13T07:03:45.688Z,8.75
2023-08-13T07:06:14.685Z,7.25
2023-08-13T07:08:42.375Z,8.43
2023-08-13T07:11:09.923Z,11.43
2023-08-13T07:13:37.466Z,16.33
2023-08-13T07:16:05.468Z,28.60
2023-08-13T07:18:33.020Z,36.47
2023-08-13T07:21:00.560Z,38.92
2023-08-13T07:23:29.965Z,36.17
2023-08-13T07:25:57.914Z,21.25
2023-08-13T07:28:25.567Z,16.58
2023-08-13T07:30:53.121Z,9.57
2023-08-13T07:33:20.664Z,6.47
2023-08-13T07:35:48.176Z,6.05
2023-08-13T07:38:15.751Z,5.97
2023-08-13T07:40:44.642Z,6.95
2023-08-13T07:43:12.210Z,5.53
2023-08-13T07:45:39.815Z,5.93
2023-08-13T07:48:08.414Z,5.55
2023-08-13T07:50:35.990Z,6.78
2023-08-13T07:53:03.567Z,5.80
2023-08-13T07:55:31.337Z,7.72
2023-08-13T07:58:00.204Z,12.57
2023-08-13T08:00:28.419Z,20.25
2023-08-13T08:02:56.095Z,22.88
2023-08-13T08:05:23.846Z,22.65
2023-08-13T08:07:51.430Z,16.98
2023-08-13T08:10:19.153Z,15.90
2023-08-13T08:12:46.745Z,14.80
2023-08-13T08:15:15.672Z,12.15
2023-08-13T08:17:43.239Z,9.63
2023-08-13T08:20:12.283Z,7.05
2023-08-13T08:22:39.826Z,5.55
2023-08-13T08:25:11.754Z,6.10
2023-08-13T08:27:39.780Z,5.65
2023-08-13T08:30:08.753Z,6.65
2023-08-13T08:32:38.036Z,6.65
2023-08-13T08:35:06.739Z,6.47
2023-08-13T08:37:34.736Z,6.72
2023-08-13T08:40:02.495Z,7.57
2023-08-13T08:42:32.186Z,6.95
2023-08-13T08:45:00.756Z,6.55
2023-08-13T08:47:28.775Z,5.60
2023-08-13T08:49:57.732Z,6.00
2023-08-13T08:52:25.280Z,6.32
2023-08-13T08:54:53.726Z,7.07
2023-08-13T08:57:21.262Z,7.28
2023-08-13T08:59:48.856Z,7.47
2023-08-13T09:02:16.547Z,6.85
2023-08-13T09:04:44.746Z,7.57
2023-08-13T09:07:13.668Z,6.70
2023-08-13T09:09:44.401Z,6.97
2023-08-13T09:12:12.202Z,8.13
2023-08-13T09:14:39.787Z,6.65
2023-08-13T09:17:07.352Z,6.95
2023-08-13T09:19:34.968Z,6.93
2023-08-13T09:22:04.248Z,6.43
2023-08-13T09:24:34.894Z,6.25
2023-08-13T09:27:04.078Z,6.03
2023-08-13T09:29:32.273Z,8.18
2023-08-13T09:32:00.517Z,15.02
2023-08-13T09:34:28.527Z,19.75
2023-08-13T09:36:56.305Z,21.55
2023-08-13T09:39:24.309Z,19.55
2023-08-13T09:41:53.843Z,23.67
2023-08-13T09:44:25.330Z,19.45
2023-08-13T09:46:55.570Z,12.73
2023-08-13T09:49:23.865Z,11.55
2023-08-13T09:51:54.301Z,8.50
2023-08-13T09:54:30.451Z,6.22
2023-08-13T09:57:04.733Z,4.72
2023-08-13T09:59:35.383Z,5.82
2023-08-13T10:02:06.628Z,6.53
2023-08-13T10:04:35.476Z,5.45
2023-08-13T10:07:05.491Z,4.35
2023-08-13T10:09:34.309Z,5.15
2023-08-13T10:12:04.026Z,8.00
2023-08-13T10:14:32.725Z,7.63
2023-08-13T10:17:02.510Z,9.05
2023-08-13T10:19:31.146Z,8.68
2023-08-13T10:21:59.440Z,12.30
2023-08-13T10:24:30.845Z,14.38
2023-08-13T10:27:00.238Z,14.45
2023-08-13T10:29:37.372Z,15.55
2023-08-13T10:32:13.651Z,15.50
2023-08-13T10:34:43.163Z,16.15
2023-08-13T10:37:16.944Z,16.70
2023-08-13T10:39:46.055Z,16.77
2023-08-13T10:42:48.647Z,16.50
2023-08-13T10:45:18.632Z,9.02
2023-08-13T10:47:48.119Z,8.45
2023-08-13T10:50:22.106Z,7.45
2023-08-13T10:52:51.642Z,6.82
2023-08-13T10:55:20.634Z,9.27
2023-08-13T10:57:52.099Z,12.30
2023-08-13T11:00:23.511Z,14.15
2023-08-13T11:02:54.953Z,10.52
2023-08-13T11:05:23.887Z,8.32
2023-08-13T11:07:53.064Z,7.85
2023-08-13T11:10:22.298Z,6.63
2023-08-13T11:12:51.242Z,6.97
2023-08-13T11:15:21.553Z,7.65
2023-08-13T11:17:49.290Z,7.97
2023-08-13T11:20:19.569Z,9.50
2023-08-13T11:22:47.523Z,9.48
2023-08-13T11:25:15.750Z,7.13
2023-08-13T11:27:43.726Z,6.63
2023-08-13T11:30:12.324Z,9.55
2023-08-13T11:32:41.486Z,11.55
2023-08-13T11:35:10.979Z,9.30
2023-08-13T11:37:39.114Z,15.13
2023-08-13T11:40:10.859Z,4.40
2023-08-13T11:42:38.713Z,5.13
2023-08-13T11:45:12.873Z,6.15
2023-08-13T11:47:41.782Z,5.00
2023-08-13T11:50:20.361Z,5.22
2023-08-13T11:53:03.828Z,3.22
2023-08-13T11:55:31.603Z,3.20
2023-08-13T11:58:00.046Z,3.00
2023-08-13T12:00:28.553Z,2.67
2023-08-13T12:02:58.236Z,2.75
2023-08-13T12:05:27.996Z,2.70
2023-08-13T12:07:57.442Z,2.90
2023-08-13T12:10:25.306Z,2.95
2023-08-13T12:12:52.862Z,3.00
2023-08-13T12:15:23.279Z,2.97
2023-08-13T12:17:50.842Z,2.85
2023-08-13T12:20:19.925Z,2.90
2023-08-13T12:22:47.903Z,2.83
2023-08-13T12:25:15.489Z,3.22
2023-08-13T12:27:44.191Z,2.70
2023-08-13T12:30:12.956Z,2.45
2023-08-13T12:32:40.597Z,2.65
2023-08-13T12:35:10.134Z,2.50
2023-08-13T12:37:39.030Z,2.30
2023-08-13T12:40:10.142Z,2.33
2023-08-13T12:42:37.798Z,2.42
2023-08-13T12:45:07.051Z,2.40
2023-08-13T12:47:35.173Z,2.20
2023-08-13T12:50:02.953Z,2.25
2023-08-13T12:52:31.577Z,2.70
2023-08-13T12:55:00.547Z,2.40
2023-08-13T12:57:28.173Z,3.28
2023-08-13T12:59:55.917Z,3.72
2023-08-13T13:02:27.107Z,4.53
2023-08-13T13:04:56.594Z,4.60
2023-08-13T13:07:24.815Z,4.80
2023-08-13T13:09:52.396Z,4.38
2023-08-13T13:12:21.668Z,4.85
2023-08-13T13:14:49.225Z,5.03
2023-08-13T13:17:17.806Z,4.70
2023-08-13T13:19:45.374Z,4.72
2023-08-13T13:22:13.406Z,4.82
2023-08-13T13:24:41.227Z,5.20
2023-08-13T13:27:08.769Z,6.03
2023-08-13T13:29:37.653Z,7.80
2023-08-13T13:32:05.781Z,7.32
2023-08-13T13:34:33.360Z,8.05
2023-08-13T13:37:00.936Z,7.43
2023-08-13T13:39:28.475Z,7.68
2023-08-13T13:41:56.020Z,8.68
2023-08-13T13:44:24.124Z,9.35
2023-08-13T13:46:53.272Z,9.50
2023-08-13T13:49:20.811Z,10.05
2023-08-13T13:51:48.544Z,9.63
2023-08-13T13:54:16.082Z,10.32
2023-08-13T13:56:43.634Z,11.13
2023-08-13T13:59:11.172Z,11.75
2023-08-13T14:01:40.957Z,11.30
2023-08-13T14:04:12.272Z,12.25
2023-08-13T14:06:40.055Z,12.50
2023-08-13T14:09:07.851Z,12.43
2023-08-13T14:11:35.430Z,14.60
2023-08-13T14:14:03.407Z,15.48
2023-08-13T14:16:30.955Z,13.38
2023-08-13T14:18:58.555Z,14.52
2023-08-13T14:21:27.425Z,13.45
2023-08-13T14:23:54.998Z,14.88
2023-08-13T14:26:22.580Z,14.57
2023-08-13T14:28:50.131Z,16.10
2023-08-13T14:31:17.769Z,12.85
2023-08-13T14:33:45.334Z,14.57
2023-08-13T14:36:12.896Z,11.30
2023-08-13T14:38:41.791Z,9.50
2023-08-13T14:41:09.421Z,7.55
2023-08-13T14:43:36.999Z,6.95
2023-08-13T14:46:04.611Z,6.28
2023-08-13T14:48:32.223Z,4.88
2023-08-13T14:50:59.782Z,3.63
2023-08-13T14:53:27.339Z,3.97
2023-08-13T14:55:56.261Z,4.75
2023-08-13T14:58:24.902Z,3.83
2023-08-13T15:00:52.560Z,4.80
2023-08-13T15:03:20.181Z,4.35
2023-08-13T15:05:47.767Z,4.88
2023-08-13T15:08:15.316Z,5.03
2023-08-13T15:10:42.863Z,5.40
2023-08-13T15:13:11.747Z,4.20
2023-08-13T15:15:39.881Z,3.88
2023-08-13T15:18:08.869Z,4.43
2023-08-13T15:20:36.856Z,5.22
2023-08-13T15:23:04.808Z,7.25
2023-08-13T15:25:44.981Z,11.63
2023-08-13T15:28:21.462Z,10.82
2023-08-13T15:30:49.076Z,9.25
2023-08-13T15:33:16.646Z,7.65
2023-08-13T15:35:52.128Z,8.93
2023-08-13T15:38:22.757Z,8.00
2023-08-13T15:40:50.865Z,9.48
2023-08-13T15:43:18.533Z,8.85
2023-08-13T15:45:48.017Z,8.75
2023-08-13T15:48:15.686Z,6.70
2023-08-13T15:50:43.263Z,10.07
2023-08-13T15:53:10.803Z,9.73
2023-08-13T15:55:39.036Z,7.90
2023-08-13T15:58:07.956Z,8.10
2023-08-13T16:00:36.133Z,8.25
2023-08-13T16:03:06.239Z,6.72
2023-08-13T16:05:34.286Z,7.70
2023-08-13T16:08:01.902Z,8.10
2023-08-13T16:10:30.345Z,7.88
2023-08-13T16:12:57.951Z,7.47
2023-08-13T16:15:25.812Z,7.32
2023-08-13T16:17:53.419Z,7.18
2023-08-13T16:20:22.642Z,7.13
2023-08-13T16:22:50.223Z,6.72
2023-08-13T16:25:18.933Z,8.70
2023-08-13T16:27:46.502Z,12.57
2023-08-13T16:30:14.775Z,10.57
2023-08-13T16:32:44.210Z,12.02
2023-08-13T16:35:12.425Z,11.43
2023-08-13T16:37:41.312Z,9.10
2023-08-13T16:40:10.402Z,11.52
2023-08-13T16:42:51.196Z,10.35
2023-08-13T16:45:26.277Z,10.55
2023-08-13T16:47:55.751Z,9.85
2023-08-13T16:50:23.591Z,9.93
2023-08-13T16:52:52.754Z,9.63
2023-08-13T16:55:20.522Z,9.55
2023-08-13T16:57:48.106Z,9.43
2023-08-13T17:00:15.928Z,9.57
2023-08-13T17:02:44.736Z,10.48
2023-08-13T17:05:13.167Z,9.98
2023-08-13T17:07:40.961Z,10.02
2023-08-13T17:10:10.685Z,9.07
2023-08-13T17:12:38.417Z,10.68
2023-08-13T17:15:21.124Z,10.10
2023-08-13T17:17:49.707Z,11.13
2023-08-13T17:20:20.913Z,9.85
2023-08-13T17:22:49.508Z,8.70
2023-08-13T17:25:18.369Z,10.05
2023-08-13T17:27:46.668Z,8.40
2023-08-13T17:30:14.881Z,7.65
2023-08-13T17:32:42.419Z,8.35
2023-08-13T17:35:10.665Z,9.68
2023-08-13T17:37:38.231Z,8.25
2023-08-13T17:40:06.859Z,9.48
2023-08-13T17:42:35.759Z,7.47
2023-08-13T17:45:03.743Z,7.35
2023-08-13T17:47:31.544Z,7.05
2023-08-13T17:49:59.226Z,6.40
2023-08-13T17:52:29.230Z,6.70
2023-08-13T17:54:56.954Z,7.10
2023-08-13T17:57:24.545Z,6.85
2023-08-13T17:59:53.735Z,6.93
2023-08-13T18:02:21.364Z,6.72
2023-08-13T18:04:48.974Z,6.00
2023-08-13T18:07:16.941Z,7.05
2023-08-13T18:09:44.809Z,7.47
2023-08-13T18:12:12.387Z,6.18
2023-08-13T18:14:39.984Z,6.90
2023-08-13T18:17:09.267Z,7.57
2023-08-13T18:19:36.849Z,7.75
2023-08-13T18:22:04.441Z,8.13
2023-08-13T18:24:32.055Z,6.72
2023-08-13T18:26:59.592Z,7.25
2023-08-13T18:29:27.194Z,10.07
2023-08-13T18:31:54.802Z,16.08
2023-08-13T18:34:23.782Z,19.85
2023-08-13T18:36:51.348Z,20.27
2023-08-13T18:39:18.915Z,17.85
2023-08-13T18:41:46.527Z,18.10
2023-08-13T18:44:14.101Z,16.85
2023-08-13T18:46:43.865Z,16.85
2023-08-13T18:49:11.432Z,14.25
2023-08-13T18:51:40.318Z,15.35
2023-08-13T18:54:07.936Z,13.02
2023-08-13T18:56:35.497Z,11.73
2023-08-13T18:59:03.102Z,12.02
2023-08-13T19:01:30.668Z,11.32
2023-08-13T19:03:58.516Z,12.88
2023-08-13T19:06:26.096Z,11.48
2023-08-13T19:08:54.995Z,10.65
2023-08-13T19:11:22.598Z,11.27
2023-08-13T19:13:50.365Z,10.10
2023-08-13T19:16:18.003Z,8.43
2023-08-13T19:18:45.603Z,9.90
2023-08-13T19:21:13.174Z,7.95
2023-08-13T19:23:40.847Z,8.63
2023-08-13T19:26:09.748Z,9.68
2023-08-13T19:28:37.308Z,11.20
2023-08-13T19:31:04.928Z,10.55
2023-08-13T19:33:32.523Z,9.48
2023-08-13T19:36:00.080Z,9.05
2023-08-13T19:38:27.627Z,11.25
2023-08-13T19:40:56.259Z,10.85
2023-08-13T19:43:25.392Z,16.55
2023-08-13T19:45:52.997Z,15.70
2023-08-13T19:48:23.958Z,19.63
2023-08-13T19:50:51.857Z,25.95
2023-08-13T19:53:19.470Z,17.52
2023-08-13T19:55:49.646Z,18.92
2023-08-13T19:58:18.555Z,29.73
2023-08-13T20:00:48.438Z,41.38
2023-08-13T20:03:17.557Z,36.15
2023-08-13T20:05:45.115Z,19.20
2023-08-13T20:08:12.706Z,17.60
2023-08-13T20:10:40.595Z,17.38
2023-08-13T20:13:08.163Z,16.05
2023-08-13T20:15:36.135Z,20.98
2023-08-13T20:18:05.709Z,23.15
2023-08-13T20:20:33.281Z,27.55
2023-08-13T20:23:03.699Z,25.77
2023-08-13T20:25:31.325Z,25.30
2023-08-13T20:27:58.863Z,27.67
2023-08-13T20:30:26.410Z,28.08
2023-08-13T20:32:53.965Z,25.75
2023-08-13T20:35:22.973Z,19.92
2023-08-13T20:37:50.488Z,20.02
2023-08-13T20:40:18.204Z,20.08
2023-08-13T20:42:46.114Z,21.00
2023-08-13T20:45:13.710Z,26.25
2023-08-13T20:47:41.449Z,28.25
2023-08-13T20:50:17.314Z,36.55
2023-08-13T20:52:47.163Z,43.25
2023-08-13T20:55:14.779Z,44.00
2023-08-13T20:57:42.729Z,46.88
2023-08-13T21:00:11.667Z,44.47
2023-08-13T21:02:39.305Z,51.25
2023-08-13T21:05:07.678Z,38.67
2023-08-13T21:07:35.233Z,31.70
2023-08-13T21:10:04.392Z,59.08
2023-08-13T21:12:31.940Z,51.60
2023-08-13T21:14:59.728Z,57.20
2023-08-13T21:17:27.286Z,42.97
2023-08-13T21:19:55.040Z,61.03
2023-08-13T21:22:22.611Z,60.35
2023-08-13T21:24:50.199Z,60.55
2023-08-13T21:27:19.104Z,57.17
2023-08-13T21:29:46.685Z,61.90
2023-08-13T21:32:14.261Z,64.80
2023-08-13T21:34:41.796Z,60.92
2023-08-13T21:37:09.429Z,36.22
2023-08-13T21:39:37.214Z,37.97
2023-08-13T21:42:04.895Z,20.38
2023-08-13T21:44:33.789Z,23.83
2023-08-13T21:47:01.317Z,28.35
2023-08-13T21:49:28.857Z,37.70
2023-08-13T21:51:56.393Z,59.97
2023-08-13T21:54:23.916Z,62.47
2023-08-13T21:56:51.808Z,60.25
2023-08-13T21:59:19.374Z,42.05
2023-08-13T22:01:48.304Z,27.35
2023-08-13T22:04:15.892Z,33.00
2023-08-13T22:06:43.494Z,40.67
2023-08-13T22:09:11.601Z,56.40
2023-08-13T22:11:39.483Z,56.58
2023-08-13T22:14:07.871Z,58.03
2023-08-13T22:16:36.751Z,59.13
2023-08-13T22:19:06.772Z,57.15
2023-08-13T22:21:34.486Z,63.10
2023-08-13T22:24:02.080Z,62.67
2023-08-13T22:26:29.645Z,66.78
2023-08-13T22:28:57.257Z,67.57
2023-08-13T22:31:25.116Z,62.47
2023-08-13T22:33:52.705Z,61.72
2023-08-13T22:36:21.715Z,63.90
2023-08-13T22:38:49.361Z,65.88
2023-08-13T22:41:16.910Z,61.42
2023-08-13T22:43:44.421Z,56.33
2023-08-13T22:46:11.995Z,57.60
2023-08-13T22:48:39.568Z,52.17
2023-08-13T22:51:07.182Z,54.53
2023-08-13T22:53:36.081Z,60.25
2023-08-13T22:56:03.673Z,60.30
2023-08-13T22:58:32.193Z,60.83
2023-08-13T23:01:00.035Z,60.90
2023-08-13T23:03:28.851Z,51.83
2023-08-13T23:05:56.480Z,58.28
2023-08-13T23:08:25.212Z,53.17
2023-08-13T23:10:54.789Z,57.58
2023-08-13T23:13:22.394Z,51.65
2023-08-13T23:15:49.969Z,33.55
2023-08-13T23:18:17.589Z,22.50
2023-08-13T23:20:45.214Z,17.75
2023-08-13T23:23:12.792Z,16.73
2023-08-13T23:25:40.324Z,16.05
2023-08-13T23:28:09.308Z,15.20
2023-08-13T23:30:36.888Z,15.75
2023-08-13T23:33:04.890Z,18.42
2023-08-13T23:35:32.480Z,16.60
2023-08-13T23:38:00.120Z,18.13
2023-08-13T23:40:27.653Z,15.02
2023-08-13T23:42:55.207Z,13.48
2023-08-13T23:45:24.297Z,18.67
2023-08-13T23:47:51.929Z,14.80
2023-08-13T23:50:19.570Z,33.00
2023-08-13T23:52:47.119Z,65.95
2023-08-13T23:55:14.641Z,180.00
2023-08-13T23:57:42.189Z,125.30
